Flight Track Log - Related Links

Times and Time Zones

All times are in EDT time to prevent confusion due to time zone crossing. See the N6036Y flight status page for this flight to view local times or setup timezone preferences in your user account.

Time Position Orientation Groundspeed Altitude Reporting Facility
EDT Latitude Longitude Course Direction KTS MPH feet Rate Location/Type
Wed 04:34:04 PM 28.1167 -80.6167 41° Northeast 60 69 1,100  Level Orlando TRACON
Wed 04:35:09 PM 28.1167 -80.6000 90° East 72 83 1,800 619 Climbing Orlando TRACON
Wed 04:36:10 PM 28.1333 -80.6000 360° North 85 98 2,400 574 Climbing Orlando TRACON
Wed 04:37:04 PM 28.1500 -80.6167 319° Northwest 77 89 2,900 300 Climbing Orlando TRACON
Wed 04:38:10 PM 28.1500 -80.6500 270° West 114 131 3,000 50 Climbing Orlando TRACON
Wed 04:39:04 PM 28.1667 -80.6833 300° West 112 129 3,000  Level Orlando TRACON
Wed 04:40:16 PM 28.1833 -80.7167 300° West 114 131 3,000  Level Orlando TRACON
Wed 04:41:16 PM 28.2000 -80.7500 300° West 110 127 3,000 -50 Level Orlando TRACON
Wed 04:42:16 PM 28.2167 -80.7667 319° Northwest 105 121 2,900 -347 Descending Orlando TRACON
Wed 04:43:17 PM 28.2333 -80.7833 319° Northwest 105 121 2,300 -378 Descending Orlando TRACON
Wed 04:44:23 PM 28.2667 -80.8000 336° Northwest 87 100 2,100 -48 Descending Orlando TRACON
Wed 04:45:22 PM 28.3000 -80.8000 360° North 88 101 2,200  Climbing Orlando TRACON
Wed 04:46:23 PM 28.3167 -80.8000 360° North 97 112 2,100 -52 Descending Orlando TRACON
Wed 04:47:17 PM 28.3500 -80.8000 360° North 96 110 2,100 56 Level Orlando TRACON
Wed 04:48:11 PM 28.3667 -80.8000 360° North 91 105 2,200  Climbing Orlando TRACON
Wed 04:49:17 PM 28.4000 -80.8000 360° North 93 107 2,100 -350 Descending Orlando TRACON
Wed 04:50:11 PM 28.4167 -80.8000 360° North 97 112 1,500 -450 Descending Orlando TRACON
Wed 04:51:17 PM 28.4500 -80.8000 360° North 82 94 1,200 -378 Descending Orlando TRACON
Wed 04:52:18 PM 28.4667 -80.8000 360° North 84 97 700 -250 Descending Orlando TRACON
Wed 04:53:41 PM 28.5000 -80.8000 360° North 86 99 600 323 Descending Orlando TRACON
Wed 04:55:24 PM 28.5333 -80.8167 336° Northwest 102 117 1,700 650 Climbing Orlando TRACON
Wed 04:56:18 PM 28.5333 -80.8333 270° West 91 105 2,300 667 Climbing Orlando TRACON
Wed 04:57:12 PM 28.5500 -80.8500 319° Northwest 81 93 2,900 444 Climbing Orlando TRACON
Wed 04:58:06 PM 28.5833 -80.8500 360° North 103 119 3,100 53 Climbing Orlando TRACON
Wed 04:59:06 PM 28.6000 -80.8500 360° North 111 128 3,000 -50 Descending Orlando TRACON
Wed 05:00:06 PM 28.6333 -80.8667 336° Northwest 108 124 3,000  Level Orlando TRACON
Wed 05:01:12 PM 28.6667 -80.8667 360° North 107 123 3,000  Level Orlando TRACON
Wed 05:02:06 PM 28.7000 -80.8667 360° North 107 123 3,000 34 Level Orlando TRACON
Wed 05:04:09 PM 28.7519 -80.8869 341° North 106 122 3,100 66 Climbing Jacksonville Center
Wed 05:05:09 PM 28.7814 -80.8956 346° North 105 121 3,200  Climbing Jacksonville Center
Wed 05:06:04 PM 28.8064 -80.9000 351° North 104 120 3,100 -49 Descending Jacksonville Center
Wed 05:07:11 PM 28.8378 -80.9089 346° North 108 124 3,100  Level Jacksonville Center
Wed 05:08:17 PM 28.8692 -80.9153 350° North 108 124 3,100 -142 Level Jacksonville Center
Wed 05:09:18 PM 28.8986 -80.9217 349° North 98 113 2,800 -492 Descending Jacksonville Center
Wed 05:10:19 PM 28.9258 -80.9308 344° North 99 114 2,100 -344 Descending Jacksonville Center
Wed 05:11:20 PM 28.9511 -80.9375 347° North 88 101 2,100  Level Jacksonville Center
Wed 05:12:14 PM 28.9742 -80.9417 351° North 89 102 2,100 -157 Level Jacksonville Center
Wed 05:13:15 PM 28.9969 -80.9411 North 89 102 1,800 -422 Descending Jacksonville Center
Wed 05:14:22 PM 29.0183 -80.9644 316° Northwest 101 116 1,200 -422 Descending Jacksonville Center
Wed 05:15:23 PM 29.0353 -80.9808 320° Northwest 74 85 900 -327 Descending Jacksonville Center
Wed 05:16:12 PM 29.0497 -80.9758 17° North 68 78 600 -367 Descending Jacksonville Center
Wed 05:18:00 PM 29.0500 -80.9333 North  Level FlightAware Approximate

Login

Don't have an account? Register now (free) for customized features, flight alerts, and more!